sensor_id;sensor_type;location;lat;lon;timestamp;pressure;altitude;pressure_sealevel;temperature;humidity
28312;BME280;15572;48.810;9.148;2023-03-22T00:02:35;97972.72;;;8.82;100.00
28312;BME280;15572;48.810;9.148;2023-03-22T00:07:33;97970.81;;;8.76;100.00
28312;BME280;15572;48.810;9.148;2023-03-22T00:12:31;97973.03;;;8.72;100.00
28312;BME280;15572;48.810;9.148;2023-03-22T00:17:28;97964.94;;;8.72;100.00
28312;BME280;15572;48.810;9.148;2023-03-22T00:22:25;97964.56;;;8.75;100.00
28312;BME280;15572;48.810;9.148;2023-03-22T00:27:23;97960.81;;;8.76;100.00
28312;BME280;15572;48.810;9.148;2023-03-22T00:32:19;97958.31;;;8.75;100.00
28312;BME280;15572;48.810;9.148;2023-03-22T00:37:16;97956.97;;;8.64;100.00
28312;BME280;15572;48.810;9.148;2023-03-22T00:42:12;97965.53;;;8.53;100.00
28312;BME280;15572;48.810;9.148;2023-03-22T00:47:10;97954.84;;;8.45;100.00
28312;BME280;15572;48.810;9.148;2023-03-22T00:52:06;97947.13;;;8.42;100.00
28312;BME280;15572;48.810;9.148;2023-03-22T00:57:03;97936.34;;;8.42;100.00
28312;BME280;15572;48.810;9.148;2023-03-22T01:01:59;97938.59;;;8.38;100.00
28312;BME280;15572;48.810;9.148;2023-03-22T01:07:00;97932.38;;;8.38;100.00
28312;BME280;15572;48.810;9.148;2023-03-22T01:12:00;97919.72;;;8.38;100.00
28312;BME280;15572;48.810;9.148;2023-03-22T01:16:56;97924.81;;;8.33;100.00
28312;BME280;15572;48.810;9.148;2023-03-22T01:21:53;97914.78;;;8.27;100.00
28312;BME280;15572;48.810;9.148;2023-03-22T01:26:51;97911.41;;;8.25;100.00
28312;BME280;15572;48.810;9.148;2023-03-22T01:31:47;97911.41;;;8.25;100.00
28312;BME280;15572;48.810;9.148;2023-03-22T01:36:44;97894.53;;;8.17;100.00
28312;BME280;15572;48.810;9.148;2023-03-22T01:41:40;97900.56;;;8.04;100.00
28312;BME280;15572;48.810;9.148;2023-03-22T01:46:39;97888.97;;;7.89;100.00
28312;BME280;15572;48.810;9.148;2023-03-22T01:51:35;97888.03;;;7.82;100.00
28312;BME280;15572;48.810;9.148;2023-03-22T01:56:33;97891.19;;;7.71;100.00
28312;BME280;15572;48.810;9.148;2023-03-22T02:01:31;97894.63;;;7.65;100.00
28312;BME280;15572;48.810;9.148;2023-03-22T02:06:30;97880.03;;;7.59;100.00
28312;BME280;15572;48.810;9.148;2023-03-22T02:11:30;97884.13;;;7.55;100.00
28312;BME280;15572;48.810;9.148;2023-03-22T02:16:35;97880.69;;;7.46;100.00
28312;BME280;15572;48.810;9.148;2023-03-22T02:21:57;97871.22;;;7.36;100.00
28312;BME280;15572;48.810;9.148;2023-03-22T02:27:14;97862.19;;;7.29;100.00
28312;BME280;15572;48.810;9.148;2023-03-22T02:32:47;97856.34;;;7.25;100.00
28312;BME280;15572;48.810;9.148;2023-03-22T02:38:09;97858.91;;;7.18;100.00
28312;BME280;15572;48.810;9.148;2023-03-22T02:43:17;97859.66;;;7.12;100.00
28312;BME280;15572;48.810;9.148;2023-03-22T02:48:21;97859.53;;;7.06;100.00
28312;BME280;15572;48.810;9.148;2023-03-22T02:53:23;97863.91;;;7.07;100.00
28312;BME280;15572;48.810;9.148;2023-03-22T02:58:28;97850.28;;;7.08;100.00
28312;BME280;15572;48.810;9.148;2023-03-22T03:03:28;97860.19;;;7.08;100.00
28312;BME280;15572;48.810;9.148;2023-03-22T03:08:26;97861.59;;;7.04;100.00
28312;BME280;15572;48.810;9.148;2023-03-22T03:13:23;97864.00;;;6.99;100.00
28312;BME280;15572;48.810;9.148;2023-03-22T03:18:37;97860.63;;;6.97;100.00
28312;BME280;15572;48.810;9.148;2023-03-22T03:23:46;97864.75;;;6.85;100.00
28312;BME280;15572;48.810;9.148;2023-03-22T03:28:46;97868.50;;;6.84;100.00
28312;BME280;15572;48.810;9.148;2023-03-22T03:33:56;97862.63;;;6.80;100.00
28312;BME280;15572;48.810;9.148;2023-03-22T03:38:54;97863.63;;;6.79;100.00
28312;BME280;15572;48.810;9.148;2023-03-22T03:43:52;97860.84;;;6.72;100.00
28312;BME280;15572;48.810;9.148;2023-03-22T03:48:51;97878.84;;;6.72;100.00
28312;BME280;15572;48.810;9.148;2023-03-22T03:53:48;97861.75;;;6.65;100.00
28312;BME280;15572;48.810;9.148;2023-03-22T03:58:45;97867.00;;;6.58;100.00
28312;BME280;15572;48.810;9.148;2023-03-22T04:03:41;97871.94;;;6.47;100.00
28312;BME280;15572;48.810;9.148;2023-03-22T04:08:39;97867.78;;;6.44;100.00
28312;BME280;15572;48.810;9.148;2023-03-22T04:13:36;97866.09;;;6.43;100.00
28312;BME280;15572;48.810;9.148;2023-03-22T04:18:32;97863.78;;;6.40;100.00
28312;BME280;15572;48.810;9.148;2023-03-22T04:23:29;97856.94;;;6.29;100.00
28312;BME280;15572;48.810;9.148;2023-03-22T04:28:28;97862.38;;;6.21;100.00
28312;BME280;15572;48.810;9.148;2023-03-22T04:33:28;97850.59;;;6.22;100.00
28312;BME280;15572;48.810;9.148;2023-03-22T04:38:26;97840.31;;;6.26;100.00
28312;BME280;15572;48.810;9.148;2023-03-22T04:43:23;97834.00;;;6.42;100.00
28312;BME280;15572;48.810;9.148;2023-03-22T04:48:20;97839.25;;;6.81;100.00
28312;BME280;15572;48.810;9.148;2023-03-22T04:53:18;97827.56;;;7.26;100.00
28312;BME280;15572;48.810;9.148;2023-03-22T04:58:21;97826.34;;;7.72;100.00
28312;BME280;15572;48.810;9.148;2023-03-22T05:03:18;97814.38;;;7.96;100.00
28312;BME280;15572;48.810;9.148;2023-03-22T05:08:17;97807.56;;;8.15;100.00
28312;BME280;15572;48.810;9.148;2023-03-22T05:13:13;97805.34;;;8.33;100.00
28312;BME280;15572;48.810;9.148;2023-03-22T05:18:10;97808.16;;;8.46;100.00
28312;BME280;15572;48.810;9.148;2023-03-22T05:23:08;97818.34;;;8.51;100.00
28312;BME280;15572;48.810;9.148;2023-03-22T05:28:06;97805.69;;;8.51;100.00
28312;BME280;15572;48.810;9.148;2023-03-22T05:33:03;97821.72;;;8.53;100.00
28312;BME280;15572;48.810;9.148;2023-03-22T05:38:00;97813.97;;;8.50;100.00
28312;BME280;15572;48.810;9.148;2023-03-22T05:42:57;97813.63;;;8.53;100.00
28312;BME280;15572;48.810;9.148;2023-03-22T05:47:54;97827.09;;;8.53;100.00
28312;BME280;15572;48.810;9.148;2023-03-22T05:52:51;97831.91;;;8.57;100.00
28312;BME280;15572;48.810;9.148;2023-03-22T05:57:47;97830.72;;;8.60;100.00
28312;BME280;15572;48.810;9.148;2023-03-22T06:02:47;97838.72;;;8.74;100.00
28312;BME280;15572;48.810;9.148;2023-03-22T06:07:45;97829.88;;;8.80;100.00
28312;BME280;15572;48.810;9.148;2023-03-22T06:12:42;97840.94;;;8.92;100.00
28312;BME280;15572;48.810;9.148;2023-03-22T06:17:38;97835.00;;;8.97;99.43
28312;BME280;15572;48.810;9.148;2023-03-22T06:22:36;97838.81;;;9.09;98.33
28312;BME280;15572;48.810;9.148;2023-03-22T06:27:34;97855.06;;;9.15;98.04
28312;BME280;15572;48.810;9.148;2023-03-22T06:32:31;97852.50;;;9.28;96.93
28312;BME280;15572;48.810;9.148;2023-03-22T06:37:27;97849.63;;;9.37;97.12
28312;BME280;15572;48.810;9.148;2023-03-22T06:42:24;97855.72;;;9.45;96.48
28312;BME280;15572;48.810;9.148;2023-03-22T06:47:22;97865.16;;;9.56;96.13
28312;BME280;15572;48.810;9.148;2023-03-22T06:52:19;97863.53;;;9.68;93.77
28312;BME280;15572;48.810;9.148;2023-03-22T06:57:15;97861.34;;;9.85;91.92
28312;BME280;15572;48.810;9.148;2023-03-22T07:02:12;97854.59;;;10.02;88.42
28312;BME280;15572;48.810;9.148;2023-03-22T07:07:10;97854.28;;;10.18;87.63
28312;BME280;15572;48.810;9.148;2023-03-22T07:12:06;97855.38;;;10.37;82.10
28312;BME280;15572;48.810;9.148;2023-03-22T07:17:04;97858.16;;;10.57;80.78
28312;BME280;15572;48.810;9.148;2023-03-22T07:22:01;97851.94;;;10.76;77.91
28312;BME280;15572;48.810;9.148;2023-03-22T07:26:59;97853.22;;;11.00;74.64
28312;BME280;15572;48.810;9.148;2023-03-22T07:31:56;97855.09;;;11.25;71.61
28312;BME280;15572;48.810;9.148;2023-03-22T07:36:52;97852.59;;;11.24;72.44
28312;BME280;15572;48.810;9.148;2023-03-22T07:41:51;97855.28;;;11.44;70.35
28312;BME280;15572;48.810;9.148;2023-03-22T07:46:49;97849.47;;;11.53;71.05
28312;BME280;15572;48.810;9.148;2023-03-22T07:51:46;97854.84;;;11.66;71.25
28312;BME280;15572;48.810;9.148;2023-03-22T07:56:43;97855.06;;;11.78;69.72
28312;BME280;15572;48.810;9.148;2023-03-22T08:01:42;97851.44;;;11.97;68.95
28312;BME280;15572;48.810;9.148;2023-03-22T08:06:40;97851.63;;;12.15;69.54
28312;BME280;15572;48.810;9.148;2023-03-22T08:11:37;97851.53;;;12.35;69.18
28312;BME280;15572;48.810;9.148;2023-03-22T08:16:34;97848.06;;;12.59;67.61
28312;BME280;15572;48.810;9.148;2023-03-22T08:21:32;97854.41;;;13.09;65.43
28312;BME280;15572;48.810;9.148;2023-03-22T08:26:30;97850.00;;;13.15;65.89
28312;BME280;15572;48.810;9.148;2023-03-22T08:31:26;97849.25;;;13.33;63.92
28312;BME280;15572;48.810;9.148;2023-03-22T08:36:23;97843.66;;;13.28;64.59
28312;BME280;15572;48.810;9.148;2023-03-22T08:41:20;97835.47;;;13.53;62.11
28312;BME280;15572;48.810;9.148;2023-03-22T08:46:19;97843.31;;;13.42;62.72
28312;BME280;15572;48.810;9.148;2023-03-22T08:51:16;97842.19;;;13.50;62.99
28312;BME280;15572;48.810;9.148;2023-03-22T08:56:12;97842.00;;;13.70;62.04
28312;BME280;15572;48.810;9.148;2023-03-22T09:01:10;97832.84;;;13.64;62.82
28312;BME280;15572;48.810;9.148;2023-03-22T09:06:09;97838.66;;;13.68;63.00
28312;BME280;15572;48.810;9.148;2023-03-22T09:11:07;97828.84;;;13.85;63.03
28312;BME280;15572;48.810;9.148;2023-03-22T09:16:04;97826.00;;;13.98;61.33
28312;BME280;15572;48.810;9.148;2023-03-22T09:21:03;97818.69;;;13.99;62.06
28312;BME280;15572;48.810;9.148;2023-03-22T09:26:05;97823.03;;;14.18;61.33
28312;BME280;15572;48.810;9.148;2023-03-22T09:31:05;97812.22;;;14.29;60.78
28312;BME280;15572;48.810;9.148;2023-03-22T09:36:02;97814.91;;;14.48;61.23
28312;BME280;15572;48.810;9.148;2023-03-22T09:41:03;97812.84;;;14.61;60.05
28312;BME280;15572;48.810;9.148;2023-03-22T09:46:02;97810.91;;;14.80;59.01
28312;BME280;15572;48.810;9.148;2023-03-22T09:51:00;97800.16;;;14.97;58.57
28312;BME280;15572;48.810;9.148;2023-03-22T09:56:01;97795.59;;;15.21;55.61
28312;BME280;15572;48.810;9.148;2023-03-22T10:01:03;97795.56;;;15.09;54.99
28312;BME280;15572;48.810;9.148;2023-03-22T10:06:05;97784.78;;;15.14;56.04
28312;BME280;15572;48.810;9.148;2023-03-22T10:11:06;97782.69;;;15.28;55.79
28312;BME280;15572;48.810;9.148;2023-03-22T10:16:13;97762.06;;;15.32;54.89
28312;BME280;15572;48.810;9.148;2023-03-22T10:21:12;97769.50;;;15.25;55.36
28312;BME280;15572;48.810;9.148;2023-03-22T10:26:17;97761.09;;;15.38;55.60
28312;BME280;15572;48.810;9.148;2023-03-22T10:31:16;97747.94;;;15.70;55.42
28312;BME280;15572;48.810;9.148;2023-03-22T10:36:17;97758.94;;;15.86;53.62
28312;BME280;15572;48.810;9.148;2023-03-22T10:41:16;97740.19;;;15.90;53.96
28312;BME280;15572;48.810;9.148;2023-03-22T10:46:18;97741.53;;;16.16;53.96
28312;BME280;15572;48.810;9.148;2023-03-22T10:51:22;97733.34;;;16.44;52.59
28312;BME280;15572;48.810;9.148;2023-03-22T10:56:21;97726.50;;;16.58;51.81
28312;BME280;15572;48.810;9.148;2023-03-22T11:01:26;97727.25;;;16.99;52.44
28312;BME280;15572;48.810;9.148;2023-03-22T11:06:24;97710.22;;;17.47;52.03
28312;BME280;15572;48.810;9.148;2023-03-22T11:11:23;97702.03;;;17.68;51.49
28312;BME280;15572;48.810;9.148;2023-03-22T11:16:21;97707.91;;;17.77;48.02
28312;BME280;15572;48.810;9.148;2023-03-22T11:21:23;97698.69;;;18.05;49.32
28312;BME280;15572;48.810;9.148;2023-03-22T11:26:30;97690.97;;;18.29;47.20
28312;BME280;15572;48.810;9.148;2023-03-22T11:31:26;97696.16;;;18.52;42.92
28312;BME280;15572;48.810;9.148;2023-03-22T11:36:25;97689.41;;;18.60;45.32
28312;BME280;15572;48.810;9.148;2023-03-22T11:41:23;97693.78;;;19.24;42.83
28312;BME280;15572;48.810;9.148;2023-03-22T11:46:21;97680.78;;;19.47;42.36
28312;BME280;15572;48.810;9.148;2023-03-22T11:51:28;97681.44;;;19.64;39.07
28312;BME280;15572;48.810;9.148;2023-03-22T11:56:28;97670.84;;;19.41;43.60
28312;BME280;15572;48.810;9.148;2023-03-22T12:01:43;97669.41;;;18.91;44.18
28312;BME280;15572;48.810;9.148;2023-03-22T12:06:43;97652.44;;;18.94;43.67
28312;BME280;15572;48.810;9.148;2023-03-22T12:11:42;97647.06;;;19.14;43.49
28312;BME280;15572;48.810;9.148;2023-03-22T12:16:45;97654.94;;;19.43;44.05
28312;BME280;15572;48.810;9.148;2023-03-22T12:21:45;97650.34;;;19.48;43.85
28312;BME280;15572;48.810;9.148;2023-03-22T12:26:43;97650.50;;;19.37;41.92
28312;BME280;15572;48.810;9.148;2023-03-22T12:31:44;97640.63;;;19.35;41.89
28312;BME280;15572;48.810;9.148;2023-03-22T12:36:51;97638.41;;;19.85;41.11
28312;BME280;15572;48.810;9.148;2023-03-22T12:41:51;97631.34;;;19.42;42.06
28312;BME280;15572;48.810;9.148;2023-03-22T12:46:51;97635.25;;;19.56;42.14
28312;BME280;15572;48.810;9.148;2023-03-22T12:51:54;97631.00;;;19.80;38.00
28312;BME280;15572;48.810;9.148;2023-03-22T12:56:55;97629.09;;;19.86;36.08
28312;BME280;15572;48.810;9.148;2023-03-22T13:01:54;97630.09;;;20.97;34.64
28312;BME280;15572;48.810;9.148;2023-03-22T13:06:56;97614.28;;;21.59;33.16
28312;BME280;15572;48.810;9.148;2023-03-22T13:17:47;97609.63;;;22.18;32.66
28312;BME280;15572;48.810;9.148;2023-03-22T13:28:22;97588.88;;;20.72;34.38
28312;BME280;15572;48.810;9.148;2023-03-22T13:33:24;97587.16;;;21.17;33.73
28312;BME280;15572;48.810;9.148;2023-03-22T13:38:24;97580.28;;;21.19;33.93
28312;BME280;15572;48.810;9.148;2023-03-22T13:43:26;97572.91;;;20.64;33.67
28312;BME280;15572;48.810;9.148;2023-03-22T13:48:39;97575.84;;;20.02;34.80
28312;BME280;15572;48.810;9.148;2023-03-22T13:53:40;97566.50;;;19.98;34.87
28312;BME280;15572;48.810;9.148;2023-03-22T13:58:49;97556.41;;;20.39;32.99
28312;BME280;15572;48.810;9.148;2023-03-22T14:03:48;97561.34;;;20.37;32.70
28312;BME280;15572;48.810;9.148;2023-03-22T14:08:49;97546.75;;;20.26;33.76
28312;BME280;15572;48.810;9.148;2023-03-22T14:13:49;97552.50;;;20.19;33.94
28312;BME280;15572;48.810;9.148;2023-03-22T14:18:48;97541.00;;;20.23;33.48
28312;BME280;15572;48.810;9.148;2023-03-22T14:23:49;97529.16;;;20.17;33.28
28312;BME280;15572;48.810;9.148;2023-03-22T14:28:47;97534.41;;;20.13;33.83
28312;BME280;15572;48.810;9.148;2023-03-22T14:33:43;97534.44;;;20.44;33.71
28312;BME280;15572;48.810;9.148;2023-03-22T14:38:42;97540.47;;;20.41;33.44
28312;BME280;15572;48.810;9.148;2023-03-22T14:43:42;97527.28;;;20.43;34.17
28312;BME280;15572;48.810;9.148;2023-03-22T14:48:41;97533.31;;;20.30;34.29
28312;BME280;15572;48.810;9.148;2023-03-22T14:53:43;97520.13;;;20.52;33.52
28312;BME280;15572;48.810;9.148;2023-03-22T14:58:42;97523.94;;;20.31;34.06
28312;BME280;15572;48.810;9.148;2023-03-22T15:03:40;97517.09;;;20.13;34.89
28312;BME280;15572;48.810;9.148;2023-03-22T15:08:36;97520.66;;;20.29;34.40
28312;BME280;15572;48.810;9.148;2023-03-22T15:13:34;97511.34;;;20.35;34.17
28312;BME280;15572;48.810;9.148;2023-03-22T15:18:34;97503.63;;;20.16;34.76
28312;BME280;15572;48.810;9.148;2023-03-22T15:23:33;97487.41;;;20.15;35.05
28312;BME280;15572;48.810;9.148;2023-03-22T15:28:31;97491.53;;;19.97;36.16
28312;BME280;15572;48.810;9.148;2023-03-22T15:33:35;97493.69;;;19.80;35.92
28312;BME280;15572;48.810;9.148;2023-03-22T15:38:33;97494.44;;;19.50;36.58
28312;BME280;15572;48.810;9.148;2023-03-22T15:43:33;97502.66;;;19.50;36.95
28312;BME280;15572;48.810;9.148;2023-03-22T15:48:41;97488.03;;;19.34;37.68
28312;BME280;15572;48.810;9.148;2023-03-22T15:53:38;97492.53;;;19.56;37.60
28312;BME280;15572;48.810;9.148;2023-03-22T15:58:35;97493.59;;;19.45;37.89
28312;BME280;15572;48.810;9.148;2023-03-22T16:03:38;97494.09;;;19.31;38.19
28312;BME280;15572;48.810;9.148;2023-03-22T16:08:37;97498.72;;;19.21;37.98
28312;BME280;15572;48.810;9.148;2023-03-22T16:13:34;97498.94;;;19.09;38.25
28312;BME280;15572;48.810;9.148;2023-03-22T16:18:31;97502.91;;;18.86;38.67
28312;BME280;15572;48.810;9.148;2023-03-22T16:23:28;97502.78;;;18.61;39.30
28312;BME280;15572;48.810;9.148;2023-03-22T16:28:26;97515.19;;;18.37;39.49
28312;BME280;15572;48.810;9.148;2023-03-22T16:33:22;97519.94;;;18.15;39.73
28312;BME280;15572;48.810;9.148;2023-03-22T16:38:19;97531.06;;;18.03;40.44
28312;BME280;15572;48.810;9.148;2023-03-22T16:43:17;97527.34;;;17.87;40.79
28312;BME280;15572;48.810;9.148;2023-03-22T16:48:15;97527.25;;;17.77;41.43
28312;BME280;15572;48.810;9.148;2023-03-22T16:53:13;97523.53;;;17.61;42.06
28312;BME280;15572;48.810;9.148;2023-03-22T16:58:11;97522.28;;;17.52;42.21
28312;BME280;15572;48.810;9.148;2023-03-22T17:03:08;97519.72;;;17.41;42.72
28312;BME280;15572;48.810;9.148;2023-03-22T17:08:15;97516.56;;;17.32;42.65
28312;BME280;15572;48.810;9.148;2023-03-22T17:13:13;97522.69;;;17.17;43.29
28312;BME280;15572;48.810;9.148;2023-03-22T17:18:11;97514.63;;;17.06;43.56
28312;BME280;15572;48.810;9.148;2023-03-22T17:23:09;97508.94;;;16.91;44.11
28312;BME280;15572;48.810;9.148;2023-03-22T17:28:09;97509.50;;;16.71;44.66
28312;BME280;15572;48.810;9.148;2023-03-22T17:33:06;97521.00;;;16.56;45.03
28312;BME280;15572;48.810;9.148;2023-03-22T17:38:03;97525.16;;;16.42;45.45
28312;BME280;15572;48.810;9.148;2023-03-22T17:43:00;97523.03;;;16.27;45.92
28312;BME280;15572;48.810;9.148;2023-03-22T17:47:58;97532.28;;;16.10;46.58
28312;BME280;15572;48.810;9.148;2023-03-22T17:52:58;97528.47;;;15.94;47.20
28312;BME280;15572;48.810;9.148;2023-03-22T17:57:55;97528.44;;;15.77;47.83
28312;BME280;15572;48.810;9.148;2023-03-22T18:02:53;97537.31;;;15.56;48.40
28312;BME280;15572;48.810;9.148;2023-03-22T18:07:51;97540.66;;;15.46;48.88
28312;BME280;15572;48.810;9.148;2023-03-22T18:12:48;97544.34;;;15.40;49.29
28312;BME280;15572;48.810;9.148;2023-03-22T18:17:48;97546.78;;;15.13;50.75
28312;BME280;15572;48.810;9.148;2023-03-22T18:22:45;97544.81;;;14.86;52.23
28312;BME280;15572;48.810;9.148;2023-03-22T18:27:43;97553.16;;;14.56;54.04
28312;BME280;15572;48.810;9.148;2023-03-22T18:32:39;97551.31;;;14.26;55.57
28312;BME280;15572;48.810;9.148;2023-03-22T18:37:36;97549.63;;;14.02;56.17
28312;BME280;15572;48.810;9.148;2023-03-22T18:42:36;97557.28;;;13.82;56.68
28312;BME280;15572;48.810;9.148;2023-03-22T18:47:34;97547.06;;;13.66;56.97
28312;BME280;15572;48.810;9.148;2023-03-22T18:52:31;97563.53;;;13.53;57.70
28312;BME280;15572;48.810;9.148;2023-03-22T18:57:28;97558.75;;;13.36;58.31
28312;BME280;15572;48.810;9.148;2023-03-22T19:02:25;97560.97;;;13.28;59.13
28312;BME280;15572;48.810;9.148;2023-03-22T19:07:23;97559.44;;;13.32;61.34
28312;BME280;15572;48.810;9.148;2023-03-22T19:12:20;97562.63;;;13.29;61.75
28312;BME280;15572;48.810;9.148;2023-03-22T19:17:20;97559.06;;;13.28;60.88
28312;BME280;15572;48.810;9.148;2023-03-22T19:22:16;97565.78;;;13.26;61.00
28312;BME280;15572;48.810;9.148;2023-03-22T19:27:15;97557.25;;;13.22;61.18
28312;BME280;15572;48.810;9.148;2023-03-22T19:32:12;97553.22;;;13.13;62.22
28312;BME280;15572;48.810;9.148;2023-03-22T19:37:09;97551.59;;;13.05;62.57
28312;BME280;15572;48.810;9.148;2023-03-22T19:42:05;97560.06;;;12.97;63.32
28312;BME280;15572;48.810;9.148;2023-03-22T19:47:03;97560.13;;;12.91;64.28
28312;BME280;15572;48.810;9.148;2023-03-22T19:52:00;97548.50;;;12.84;64.56
28312;BME280;15572;48.810;9.148;2023-03-22T19:56:58;97555.91;;;12.77;65.24
28312;BME280;15572;48.810;9.148;2023-03-22T20:01:54;97551.13;;;12.72;66.06
28312;BME280;15572;48.810;9.148;2023-03-22T20:06:52;97544.97;;;12.65;67.48
28312;BME280;15572;48.810;9.148;2023-03-22T20:11:49;97545.91;;;12.52;68.37
28312;BME280;15572;48.810;9.148;2023-03-22T20:16:45;97550.81;;;12.44;68.94
28312;BME280;15572;48.810;9.148;2023-03-22T20:21:42;97555.63;;;12.42;69.18
28312;BME280;15572;48.810;9.148;2023-03-22T20:26:40;97548.38;;;12.36;69.48
28312;BME280;15572;48.810;9.148;2023-03-22T20:31:36;97541.09;;;12.30;70.32
28312;BME280;15572;48.810;9.148;2023-03-22T20:36:33;97546.00;;;12.21;71.41
28312;BME280;15572;48.810;9.148;2023-03-22T20:41:30;97545.47;;;12.12;72.60
28312;BME280;15572;48.810;9.148;2023-03-22T20:46:28;97538.59;;;12.10;72.49
28312;BME280;15572;48.810;9.148;2023-03-22T20:51:24;97536.69;;;12.10;72.34
28312;BME280;15572;48.810;9.148;2023-03-22T20:56:23;97541.09;;;12.11;71.95
28312;BME280;15572;48.810;9.148;2023-03-22T21:01:20;97540.03;;;12.12;72.26
28312;BME280;15572;48.810;9.148;2023-03-22T21:06:18;97551.97;;;12.05;73.21
28312;BME280;15572;48.810;9.148;2023-03-22T21:11:14;97557.41;;;12.05;74.02
28312;BME280;15572;48.810;9.148;2023-03-22T21:16:13;97558.28;;;12.48;67.04
28312;BME280;15572;48.810;9.148;2023-03-22T21:21:10;97558.38;;;12.96;62.18
28312;BME280;15572;48.810;9.148;2023-03-22T21:26:08;97562.63;;;13.29;60.55
28312;BME280;15572;48.810;9.148;2023-03-22T21:31:06;97555.59;;;13.39;60.96
28312;BME280;15572;48.810;9.148;2023-03-22T21:36:04;97563.53;;;13.53;59.47
28312;BME280;15572;48.810;9.148;2023-03-22T21:41:02;97563.19;;;13.49;60.38
28312;BME280;15572;48.810;9.148;2023-03-22T21:46:02;97562.50;;;13.54;59.23
28312;BME280;15572;48.810;9.148;2023-03-22T21:51:00;97563.16;;;13.79;55.86
28312;BME280;15572;48.810;9.148;2023-03-22T21:55:57;97564.53;;;14.00;54.82
28312;BME280;15572;48.810;9.148;2023-03-22T22:00:54;97557.00;;;14.25;52.71
28312;BME280;15572;48.810;9.148;2023-03-22T22:05:54;97565.09;;;14.55;50.91
28312;BME280;15572;48.810;9.148;2023-03-22T22:10:54;97574.09;;;14.55;51.06
28312;BME280;15572;48.810;9.148;2023-03-22T22:15:54;97574.69;;;14.46;52.24
28312;BME280;15572;48.810;9.148;2023-03-22T22:20:56;97573.28;;;14.55;50.97
28312;BME280;15572;48.810;9.148;2023-03-22T22:25:55;97573.50;;;14.65;49.97
28312;BME280;15572;48.810;9.148;2023-03-22T22:30:52;97580.03;;;14.52;50.56
28312;BME280;15572;48.810;9.148;2023-03-22T22:35:49;97595.41;;;14.70;50.31
28312;BME280;15572;48.810;9.148;2023-03-22T22:40:47;97583.56;;;14.76;50.44
28312;BME280;15572;48.810;9.148;2023-03-22T22:45:44;97584.88;;;14.62;51.40
28312;BME280;15572;48.810;9.148;2023-03-22T22:50:40;97583.81;;;14.63;52.08
28312;BME280;15572;48.810;9.148;2023-03-22T22:55:37;97587.59;;;14.50;53.07
28312;BME280;15572;48.810;9.148;2023-03-22T23:00:35;97582.16;;;14.50;53.65
28312;BME280;15572;48.810;9.148;2023-03-22T23:05:31;97574.00;;;14.62;52.94
28312;BME280;15572;48.810;9.148;2023-03-22T23:10:28;97567.38;;;14.58;53.17
28312;BME280;15572;48.810;9.148;2023-03-22T23:15:30;97574.44;;;14.59;53.08
28312;BME280;15572;48.810;9.148;2023-03-22T23:20:28;97565.94;;;14.67;52.33
28312;BME280;15572;48.810;9.148;2023-03-22T23:25:25;97563.44;;;14.65;52.01
28312;BME280;15572;48.810;9.148;2023-03-22T23:30:21;97546.16;;;14.60;52.32
28312;BME280;15572;48.810;9.148;2023-03-22T23:35:18;97550.19;;;14.57;52.18
28312;BME280;15572;48.810;9.148;2023-03-22T23:40:16;97552.69;;;14.47;52.77
28312;BME280;15572;48.810;9.148;2023-03-22T23:45:13;97545.19;;;14.43;52.71
28312;BME280;15572;48.810;9.148;2023-03-22T23:50:11;97545.31;;;14.36;53.15
28312;BME280;15572;48.810;9.148;2023-03-22T23:55:08;97530.25;;;14.33;53.06
